Terminal Aerodrome Forecast
Issued by NWS Wakefield, VA

Home | Current Version | Previous Version | Text Only | Print | Product List | Glossary On
Versions: 1 2 3 4 5 6 7 8 9 10 11 12 13 14 15 16 17 18 19 20 21 22 23
507
FTUS41 KAKQ 291001 AAA
TAFRIC
TAF AMD
KRIC 291001Z 2910/3006 28009KT P6SM SCT007 BKN070
      TEMPO 2910/2912 P6SM OVC007
     FM291200 33006KT P6SM BKN020
     FM291600 34006KT P6SM BKN050
     FM292200 03005KT P6SM BKN100=

USA.gov is the U.S. government's official web portal to all federal, state and local government web resources and services.